sensor_id;sensor_type;location;lat;lon;timestamp;pressure;altitude;pressure_sealevel;temperature;humidity
37878;BME280;23715;53.652;8.516;2023-07-28T00:01:24;100399.63;;;19.61;100.00
37878;BME280;23715;53.652;8.516;2023-07-28T00:06:24;100390.12;;;19.50;100.00
37878;BME280;23715;53.652;8.516;2023-07-28T00:11:24;100377.52;;;19.66;100.00
37878;BME280;23715;53.652;8.516;2023-07-28T00:16:24;100372.00;;;19.53;100.00
37878;BME280;23715;53.652;8.516;2023-07-28T00:21:26;100371.71;;;19.59;100.00
37878;BME280;23715;53.652;8.516;2023-07-28T00:26:27;100368.16;;;19.65;100.00
37878;BME280;23715;53.652;8.516;2023-07-28T00:31:27;100362.61;;;19.62;100.00
37878;BME280;23715;53.652;8.516;2023-07-28T00:36:27;100358.66;;;19.72;100.00
37878;BME280;23715;53.652;8.516;2023-07-28T00:41:31;100345.12;;;19.67;100.00
37878;BME280;23715;53.652;8.516;2023-07-28T00:46:31;100342.34;;;19.61;100.00
37878;BME280;23715;53.652;8.516;2023-07-28T00:51:32;100346.36;;;19.41;100.00
37878;BME280;23715;53.652;8.516;2023-07-28T00:56:32;100351.24;;;19.52;100.00
37878;BME280;23715;53.652;8.516;2023-07-28T01:01:33;100355.55;;;19.57;100.00
37878;BME280;23715;53.652;8.516;2023-07-28T01:11:54;100344.81;;;19.49;100.00
37878;BME280;23715;53.652;8.516;2023-07-28T01:16:55;100343.56;;;19.51;100.00
37878;BME280;23715;53.652;8.516;2023-07-28T01:27:13;100346.77;;;19.44;100.00
37878;BME280;23715;53.652;8.516;2023-07-28T01:32:14;100345.41;;;19.44;100.00
37878;BME280;23715;53.652;8.516;2023-07-28T01:37:15;100341.52;;;19.60;100.00
37878;BME280;23715;53.652;8.516;2023-07-28T01:42:15;100339.09;;;19.61;100.00
37878;BME280;23715;53.652;8.516;2023-07-28T01:47:15;100327.88;;;19.60;100.00
37878;BME280;23715;53.652;8.516;2023-07-28T01:52:16;100320.72;;;19.59;100.00
37878;BME280;23715;53.652;8.516;2023-07-28T01:57:17;100316.53;;;19.57;100.00
37878;BME280;23715;53.652;8.516;2023-07-28T02:02:17;100316.53;;;19.57;100.00
37878;BME280;23715;53.652;8.516;2023-07-28T02:07:18;100321.25;;;19.52;100.00
37878;BME280;23715;53.652;8.516;2023-07-28T02:12:18;100335.27;;;19.49;100.00
37878;BME280;23715;53.652;8.516;2023-07-28T02:17:18;100339.03;;;19.48;100.00
37878;BME280;23715;53.652;8.516;2023-07-28T02:22:19;100343.84;;;19.46;100.00
37878;BME280;23715;53.652;8.516;2023-07-28T02:27:20;100353.53;;;19.48;100.00
37878;BME280;23715;53.652;8.516;2023-07-28T02:32:20;100361.08;;;19.46;100.00
37878;BME280;23715;53.652;8.516;2023-07-28T02:37:20;100364.30;;;19.46;100.00
37878;BME280;23715;53.652;8.516;2023-07-28T02:42:20;100370.25;;;19.56;100.00
37878;BME280;23715;53.652;8.516;2023-07-28T02:47:22;100372.64;;;19.55;100.00
37878;BME280;23715;53.652;8.516;2023-07-28T02:52:23;100367.71;;;19.55;100.00
37878;BME280;23715;53.652;8.516;2023-07-28T02:57:27;100375.56;;;19.54;100.00
37878;BME280;23715;53.652;8.516;2023-07-28T03:02:26;100373.27;;;19.57;100.00
37878;BME280;23715;53.652;8.516;2023-07-28T03:07:28;100372.69;;;19.62;100.00
37878;BME280;23715;53.652;8.516;2023-07-28T03:12:31;100372.48;;;19.46;100.00
37878;BME280;23715;53.652;8.516;2023-07-28T03:17:31;100356.94;;;19.40;100.00
37878;BME280;23715;53.652;8.516;2023-07-28T03:22:31;100372.94;;;19.32;100.00
37878;BME280;23715;53.652;8.516;2023-07-28T03:27:32;100376.99;;;19.43;100.00
37878;BME280;23715;53.652;8.516;2023-07-28T03:32:33;100382.89;;;19.46;100.00
37878;BME280;23715;53.652;8.516;2023-07-28T03:37:33;100377.94;;;19.46;100.00
37878;BME280;23715;53.652;8.516;2023-07-28T03:42:34;100387.34;;;19.54;100.00
37878;BME280;23715;53.652;8.516;2023-07-28T03:47:34;100372.64;;;19.55;100.00
37878;BME280;23715;53.652;8.516;2023-07-28T03:52:34;100379.70;;;19.60;100.00
37878;BME280;23715;53.652;8.516;2023-07-28T03:57:37;100381.16;;;19.56;100.00
37878;BME280;23715;53.652;8.516;2023-07-28T04:02:38;100388.70;;;19.54;100.00
37878;BME280;23715;53.652;8.516;2023-07-28T04:07:39;100386.54;;;19.43;100.00
37878;BME280;23715;53.652;8.516;2023-07-28T04:12:40;100394.77;;;19.39;100.00
37878;BME280;23715;53.652;8.516;2023-07-28T04:17:41;100413.63;;;19.51;100.00
37878;BME280;23715;53.652;8.516;2023-07-28T04:22:41;100409.28;;;19.63;100.00
37878;BME280;23715;53.652;8.516;2023-07-28T04:27:50;100392.26;;;19.55;100.00
37878;BME280;23715;53.652;8.516;2023-07-28T04:32:47;100401.64;;;19.45;100.00
37878;BME280;23715;53.652;8.516;2023-07-28T04:37:49;100411.86;;;19.37;100.00
37878;BME280;23715;53.652;8.516;2023-07-28T04:42:51;100413.55;;;19.38;100.00
37878;BME280;23715;53.652;8.516;2023-07-28T04:47:52;100439.57;;;19.40;100.00
37878;BME280;23715;53.652;8.516;2023-07-28T04:52:53;100450.39;;;19.27;100.00
37878;BME280;23715;53.652;8.516;2023-07-28T04:57:55;100454.92;;;19.30;100.00
37878;BME280;23715;53.652;8.516;2023-07-28T05:02:57;100465.64;;;19.32;100.00
37878;BME280;23715;53.652;8.516;2023-07-28T05:07:58;100474.01;;;19.30;100.00
37878;BME280;23715;53.652;8.516;2023-07-28T05:12:59;100481.90;;;19.47;100.00
37878;BME280;23715;53.652;8.516;2023-07-28T05:17:59;100472.38;;;19.36;100.00
37878;BME280;23715;53.652;8.516;2023-07-28T05:23:10;100469.38;;;19.42;100.00
37878;BME280;23715;53.652;8.516;2023-07-28T05:28:11;100480.53;;;19.47;100.00
37878;BME280;23715;53.652;8.516;2023-07-28T05:33:12;100483.01;;;19.42;100.00
37878;BME280;23715;53.652;8.516;2023-07-28T05:38:20;100487.48;;;19.39;100.00
37878;BME280;23715;53.652;8.516;2023-07-28T05:43:20;100491.91;;;19.40;100.00
37878;BME280;23715;53.652;8.516;2023-07-28T05:48:21;100504.18;;;19.40;100.00
37878;BME280;23715;53.652;8.516;2023-07-28T05:53:21;100505.91;;;19.47;100.00
37878;BME280;23715;53.652;8.516;2023-07-28T05:58:23;100518.57;;;19.44;100.00
37878;BME280;23715;53.652;8.516;2023-07-28T06:03:26;100527.07;;;19.56;100.00
37878;BME280;23715;53.652;8.516;2023-07-28T06:08:29;100527.80;;;19.72;100.00
37878;BME280;23715;53.652;8.516;2023-07-28T06:13:32;100521.46;;;19.75;100.00
37878;BME280;23715;53.652;8.516;2023-07-28T06:18:33;100524.08;;;19.90;100.00
37878;BME280;23715;53.652;8.516;2023-07-28T06:23:38;100511.55;;;19.85;100.00
37878;BME280;23715;53.652;8.516;2023-07-28T06:28:38;100508.34;;;19.92;100.00
37878;BME280;23715;53.652;8.516;2023-07-28T06:33:40;100512.34;;;19.96;100.00
37878;BME280;23715;53.652;8.516;2023-07-28T06:38:40;100511.51;;;19.96;100.00
37878;BME280;23715;53.652;8.516;2023-07-28T06:43:42;100512.70;;;20.04;100.00
37878;BME280;23715;53.652;8.516;2023-07-28T06:48:42;100511.77;;;20.07;100.00
37878;BME280;23715;53.652;8.516;2023-07-28T06:53:47;100506.67;;;20.22;100.00
37878;BME280;23715;53.652;8.516;2023-07-28T06:58:47;100509.75;;;20.29;100.00
37878;BME280;23715;53.652;8.516;2023-07-28T07:03:48;100515.40;;;20.52;100.00
37878;BME280;23715;53.652;8.516;2023-07-28T07:08:50;100512.53;;;20.60;100.00
37878;BME280;23715;53.652;8.516;2023-07-28T07:13:51;100514.53;;;20.62;100.00
37878;BME280;23715;53.652;8.516;2023-07-28T07:18:52;100508.14;;;20.66;100.00
37878;BME280;23715;53.652;8.516;2023-07-28T07:23:52;100515.93;;;20.76;100.00
37878;BME280;23715;53.652;8.516;2023-07-28T07:28:58;100518.46;;;20.77;100.00
37878;BME280;23715;53.652;8.516;2023-07-28T07:33:58;100523.92;;;20.84;100.00
37878;BME280;23715;53.652;8.516;2023-07-28T07:38:58;100520.25;;;20.88;100.00
37878;BME280;23715;53.652;8.516;2023-07-28T07:43:58;100519.41;;;20.94;100.00
37878;BME280;23715;53.652;8.516;2023-07-28T07:48:59;100516.16;;;21.08;100.00
37878;BME280;23715;53.652;8.516;2023-07-28T07:53:59;100521.31;;;21.13;100.00
37878;BME280;23715;53.652;8.516;2023-07-28T07:59:01;100532.18;;;21.17;100.00
37878;BME280;23715;53.652;8.516;2023-07-28T08:04:02;100531.42;;;21.39;100.00
37878;BME280;23715;53.652;8.516;2023-07-28T08:09:02;100525.98;;;21.53;100.00
37878;BME280;23715;53.652;8.516;2023-07-28T08:14:04;100529.47;;;21.44;100.00
37878;BME280;23715;53.652;8.516;2023-07-28T08:19:05;100535.55;;;21.33;100.00
37878;BME280;23715;53.652;8.516;2023-07-28T08:24:12;100530.69;;;21.28;100.00
37878;BME280;23715;53.652;8.516;2023-07-28T08:29:09;100534.30;;;21.49;100.00
37878;BME280;23715;53.652;8.516;2023-07-28T08:34:08;100535.13;;;21.49;100.00
37878;BME280;23715;53.652;8.516;2023-07-28T08:39:08;100536.89;;;21.39;100.00
37878;BME280;23715;53.652;8.516;2023-07-28T08:44:09;100544.40;;;21.61;100.00
37878;BME280;23715;53.652;8.516;2023-07-28T08:49:09;100541.96;;;21.62;100.00
37878;BME280;23715;53.652;8.516;2023-07-28T08:54:09;100539.02;;;21.64;100.00
37878;BME280;23715;53.652;8.516;2023-07-28T08:59:10;100540.69;;;21.72;100.00
37878;BME280;23715;53.652;8.516;2023-07-28T09:04:17;100539.88;;;21.64;100.00
37878;BME280;23715;53.652;8.516;2023-07-28T09:09:19;100546.38;;;21.37;100.00
37878;BME280;23715;53.652;8.516;2023-07-28T09:14:22;100552.89;;;21.76;100.00
37878;BME280;23715;53.652;8.516;2023-07-28T09:19:25;100549.32;;;21.82;100.00
37878;BME280;23715;53.652;8.516;2023-07-28T09:24:32;100553.84;;;21.39;100.00
37878;BME280;23715;53.652;8.516;2023-07-28T09:29:32;100558.92;;;21.69;100.00
37878;BME280;23715;53.652;8.516;2023-07-28T09:34:32;100554.83;;;21.55;100.00
37878;BME280;23715;53.652;8.516;2023-07-28T09:39:34;100557.69;;;22.00;100.00
37878;BME280;23715;53.652;8.516;2023-07-28T09:44:39;100555.36;;;22.04;100.00
37878;BME280;23715;53.652;8.516;2023-07-28T09:49:41;100559.47;;;22.04;100.00
37878;BME280;23715;53.652;8.516;2023-07-28T09:54:44;100558.13;;;21.97;100.00
37878;BME280;23715;53.652;8.516;2023-07-28T09:59:48;100560.56;;;22.39;100.00
37878;BME280;23715;53.652;8.516;2023-07-28T10:04:54;100550.59;;;22.15;100.00
37878;BME280;23715;53.652;8.516;2023-07-28T10:09:50;100558.97;;;22.05;100.00
37878;BME280;23715;53.652;8.516;2023-07-28T10:15:02;100561.42;;;22.19;100.00
37878;BME280;23715;53.652;8.516;2023-07-28T10:20:04;100574.20;;;22.10;100.00
37878;BME280;23715;53.652;8.516;2023-07-28T10:25:07;100580.24;;;21.96;100.00
37878;BME280;23715;53.652;8.516;2023-07-28T10:30:12;100591.08;;;22.00;100.00
37878;BME280;23715;53.652;8.516;2023-07-28T10:40:34;100597.77;;;22.24;100.00
37878;BME280;23715;53.652;8.516;2023-07-28T10:45:35;100600.55;;;22.04;100.00
37878;BME280;23715;53.652;8.516;2023-07-28T10:50:35;100607.15;;;22.19;100.00
37878;BME280;23715;53.652;8.516;2023-07-28T10:55:35;100613.80;;;21.34;100.00
37878;BME280;23715;53.652;8.516;2023-07-28T11:00:36;100639.77;;;21.64;100.00
37878;BME280;23715;53.652;8.516;2023-07-28T11:05:36;100633.64;;;21.82;100.00
37878;BME280;23715;53.652;8.516;2023-07-28T11:10:37;100639.33;;;21.68;100.00
37878;BME280;23715;53.652;8.516;2023-07-28T11:15:39;100652.75;;;21.42;100.00
37878;BME280;23715;53.652;8.516;2023-07-28T11:20:42;100664.05;;;21.70;100.00
37878;BME280;23715;53.652;8.516;2023-07-28T11:25:45;100658.58;;;22.03;100.00
37878;BME280;23715;53.652;8.516;2023-07-28T11:30:46;100716.56;;;21.56;100.00
37878;BME280;23715;53.652;8.516;2023-07-28T11:35:47;100661.77;;;21.23;100.00
37878;BME280;23715;53.652;8.516;2023-07-28T11:40:49;100684.77;;;21.49;100.00
37878;BME280;23715;53.652;8.516;2023-07-28T11:45:50;100700.45;;;21.26;100.00
37878;BME280;23715;53.652;8.516;2023-07-28T11:50:50;100708.35;;;21.56;100.00
37878;BME280;23715;53.652;8.516;2023-07-28T11:55:52;100707.86;;;21.77;100.00
37878;BME280;23715;53.652;8.516;2023-07-28T12:00:52;100693.95;;;22.12;100.00
37878;BME280;23715;53.652;8.516;2023-07-28T12:06:07;100697.87;;;22.07;100.00
37878;BME280;23715;53.652;8.516;2023-07-28T12:11:13;100687.74;;;22.00;100.00
37878;BME280;23715;53.652;8.516;2023-07-28T12:16:31;100703.95;;;22.15;100.00
37878;BME280;23715;53.652;8.516;2023-07-28T12:21:32;100714.48;;;21.72;100.00
37878;BME280;23715;53.652;8.516;2023-07-28T12:26:32;100739.82;;;21.56;100.00
37878;BME280;23715;53.652;8.516;2023-07-28T12:31:32;100743.42;;;21.63;100.00
37878;BME280;23715;53.652;8.516;2023-07-28T12:36:32;100756.54;;;21.51;100.00
37878;BME280;23715;53.652;8.516;2023-07-28T12:41:32;100748.42;;;21.97;100.00
37878;BME280;23715;53.652;8.516;2023-07-28T12:46:32;100745.48;;;21.99;100.00
37878;BME280;23715;53.652;8.516;2023-07-28T12:51:32;100746.10;;;21.92;100.00
37878;BME280;23715;53.652;8.516;2023-07-28T12:56:33;100746.10;;;21.88;100.00
37878;BME280;23715;53.652;8.516;2023-07-28T13:01:33;100775.00;;;21.59;100.00
37878;BME280;23715;53.652;8.516;2023-07-28T13:06:34;100821.47;;;21.46;100.00
37878;BME280;23715;53.652;8.516;2023-07-28T13:11:35;100850.23;;;21.90;100.00
37878;BME280;23715;53.652;8.516;2023-07-28T13:16:36;100841.64;;;22.13;100.00
37878;BME280;23715;53.652;8.516;2023-07-28T13:21:37;100783.19;;;21.97;100.00
37878;BME280;23715;53.652;8.516;2023-07-28T13:26:37;100779.78;;;21.95;100.00
37878;BME280;23715;53.652;8.516;2023-07-28T13:31:38;100773.00;;;22.28;100.00
37878;BME280;23715;53.652;8.516;2023-07-28T13:36:38;100781.84;;;22.44;100.00
37878;BME280;23715;53.652;8.516;2023-07-28T13:41:37;100751.05;;;22.55;100.00
37878;BME280;23715;53.652;8.516;2023-07-28T13:46:38;100745.16;;;22.58;100.00
37878;BME280;23715;53.652;8.516;2023-07-28T13:51:38;100729.42;;;22.69;100.00
37878;BME280;23715;53.652;8.516;2023-07-28T13:56:37;100722.07;;;23.22;100.00
37878;BME280;23715;53.652;8.516;2023-07-28T14:01:38;100711.81;;;22.97;100.00
37878;BME280;23715;53.652;8.516;2023-07-28T14:06:38;100714.27;;;22.53;100.00
37878;BME280;23715;53.652;8.516;2023-07-28T14:11:38;100714.80;;;22.59;100.00
37878;BME280;23715;53.652;8.516;2023-07-28T14:16:38;100714.73;;;22.79;100.00
37878;BME280;23715;53.652;8.516;2023-07-28T14:21:38;100726.00;;;22.45;100.00
37878;BME280;23715;53.652;8.516;2023-07-28T14:26:38;100719.03;;;22.49;100.00
37878;BME280;23715;53.652;8.516;2023-07-28T14:31:39;100734.61;;;22.61;100.00
37878;BME280;23715;53.652;8.516;2023-07-28T14:36:39;100723.77;;;22.51;100.00
37878;BME280;23715;53.652;8.516;2023-07-28T14:41:39;100720.25;;;22.73;100.00
37878;BME280;23715;53.652;8.516;2023-07-28T14:46:38;100711.23;;;22.81;100.00
37878;BME280;23715;53.652;8.516;2023-07-28T14:51:39;100705.61;;;23.22;100.00
37878;BME280;23715;53.652;8.516;2023-07-28T14:56:39;100704.71;;;23.12;100.00
37878;BME280;23715;53.652;8.516;2023-07-28T15:01:39;100705.79;;;23.11;100.00
37878;BME280;23715;53.652;8.516;2023-07-28T15:06:39;100711.03;;;23.12;100.00
37878;BME280;23715;53.652;8.516;2023-07-28T15:11:42;100711.67;;;22.36;100.00
37878;BME280;23715;53.652;8.516;2023-07-28T15:16:43;100722.70;;;22.88;100.00
37878;BME280;23715;53.652;8.516;2023-07-28T15:21:43;100727.00;;;23.06;100.00
37878;BME280;23715;53.652;8.516;2023-07-28T15:26:43;100711.30;;;23.27;100.00
37878;BME280;23715;53.652;8.516;2023-07-28T15:31:45;100707.64;;;23.55;100.00
37878;BME280;23715;53.652;8.516;2023-07-28T15:36:46;100721.84;;;23.30;100.00
37878;BME280;23715;53.652;8.516;2023-07-28T15:41:45;100715.12;;;23.42;100.00
37878;BME280;23715;53.652;8.516;2023-07-28T15:46:46;100717.75;;;22.94;100.00
37878;BME280;23715;53.652;8.516;2023-07-28T15:51:47;100734.70;;;23.00;100.00
37878;BME280;23715;53.652;8.516;2023-07-28T15:56:49;100718.98;;;23.27;100.00
37878;BME280;23715;53.652;8.516;2023-07-28T16:01:49;100725.86;;;22.91;100.00
37878;BME280;23715;53.652;8.516;2023-07-28T16:06:52;100742.07;;;23.13;100.00
37878;BME280;23715;53.652;8.516;2023-07-28T16:11:52;100741.27;;;23.22;100.00
37878;BME280;23715;53.652;8.516;2023-07-28T16:16:54;100738.36;;;23.16;100.00
37878;BME280;23715;53.652;8.516;2023-07-28T16:21:54;100757.91;;;22.61;100.00
37878;BME280;23715;53.652;8.516;2023-07-28T16:26:56;100756.23;;;22.54;100.00
37878;BME280;23715;53.652;8.516;2023-07-28T16:31:57;100749.41;;;22.90;100.00
37878;BME280;23715;53.652;8.516;2023-07-28T16:36:56;100743.63;;;22.75;100.00
37878;BME280;23715;53.652;8.516;2023-07-28T16:41:56;100737.06;;;22.90;100.00
37878;BME280;23715;53.652;8.516;2023-07-28T16:46:58;100729.20;;;23.07;100.00
37878;BME280;23715;53.652;8.516;2023-07-28T16:51:58;100727.39;;;23.16;100.00
37878;BME280;23715;53.652;8.516;2023-07-28T16:57:01;100729.09;;;22.68;100.00
37878;BME280;23715;53.652;8.516;2023-07-28T17:02:01;100730.34;;;22.72;100.00
37878;BME280;23715;53.652;8.516;2023-07-28T17:07:01;100735.68;;;23.03;100.00
37878;BME280;23715;53.652;8.516;2023-07-28T17:12:02;100732.19;;;23.05;100.00
37878;BME280;23715;53.652;8.516;2023-07-28T17:17:02;100733.10;;;23.08;100.00
37878;BME280;23715;53.652;8.516;2023-07-28T17:22:03;100738.86;;;22.87;100.00
37878;BME280;23715;53.652;8.516;2023-07-28T17:27:04;100741.03;;;23.07;100.00
37878;BME280;23715;53.652;8.516;2023-07-28T17:32:05;100747.03;;;22.57;100.00
37878;BME280;23715;53.652;8.516;2023-07-28T17:37:05;100755.14;;;22.68;100.00
37878;BME280;23715;53.652;8.516;2023-07-28T17:42:15;100748.87;;;22.84;100.00
37878;BME280;23715;53.652;8.516;2023-07-28T17:47:15;100746.66;;;22.90;100.00
37878;BME280;23715;53.652;8.516;2023-07-28T17:52:17;100756.21;;;22.67;100.00
37878;BME280;23715;53.652;8.516;2023-07-28T17:57:18;100766.24;;;22.51;100.00
37878;BME280;23715;53.652;8.516;2023-07-28T18:02:20;100762.31;;;22.63;100.00
37878;BME280;23715;53.652;8.516;2023-07-28T18:07:21;100768.03;;;22.54;100.00
37878;BME280;23715;53.652;8.516;2023-07-28T18:12:21;100764.41;;;22.80;100.00
37878;BME280;23715;53.652;8.516;2023-07-28T18:17:24;100778.17;;;22.40;100.00
37878;BME280;23715;53.652;8.516;2023-07-28T18:22:25;100780.64;;;22.75;100.00
37878;BME280;23715;53.652;8.516;2023-07-28T18:27:25;100786.34;;;22.74;100.00
37878;BME280;23715;53.652;8.516;2023-07-28T18:32:25;100791.33;;;22.54;100.00
37878;BME280;23715;53.652;8.516;2023-07-28T18:37:28;100795.97;;;22.54;100.00
37878;BME280;23715;53.652;8.516;2023-07-28T18:42:29;100790.47;;;22.67;100.00
37878;BME280;23715;53.652;8.516;2023-07-28T18:47:29;100793.33;;;22.56;100.00
37878;BME280;23715;53.652;8.516;2023-07-28T18:52:31;100809.67;;;22.54;100.00
37878;BME280;23715;53.652;8.516;2023-07-28T18:57:33;100816.45;;;22.14;100.00
37878;BME280;23715;53.652;8.516;2023-07-28T19:02:34;100818.27;;;22.11;100.00
37878;BME280;23715;53.652;8.516;2023-07-28T19:07:39;100824.45;;;21.95;100.00
37878;BME280;23715;53.652;8.516;2023-07-28T19:12:36;100832.67;;;21.95;100.00
37878;BME280;23715;53.652;8.516;2023-07-28T19:17:36;100831.09;;;21.66;100.00
37878;BME280;23715;53.652;8.516;2023-07-28T19:22:36;100839.11;;;21.68;100.00
37878;BME280;23715;53.652;8.516;2023-07-28T19:27:36;100847.51;;;21.59;100.00
37878;BME280;23715;53.652;8.516;2023-07-28T19:32:36;100843.35;;;21.46;100.00
37878;BME280;23715;53.652;8.516;2023-07-28T19:37:36;100842.00;;;21.35;100.00
37878;BME280;23715;53.652;8.516;2023-07-28T19:42:37;100857.48;;;21.39;100.00
37878;BME280;23715;53.652;8.516;2023-07-28T19:47:36;100861.83;;;21.26;100.00
37878;BME280;23715;53.652;8.516;2023-07-28T19:52:38;100852.62;;;21.17;100.00
37878;BME280;23715;53.652;8.516;2023-07-28T19:57:39;100863.65;;;20.95;100.00
37878;BME280;23715;53.652;8.516;2023-07-28T20:02:40;100875.50;;;21.09;100.00
37878;BME280;23715;53.652;8.516;2023-07-28T20:07:40;100862.75;;;21.05;100.00
37878;BME280;23715;53.652;8.516;2023-07-28T20:12:40;100874.00;;;21.17;100.00
37878;BME280;23715;53.652;8.516;2023-07-28T20:17:40;100877.41;;;21.09;100.00
37878;BME280;23715;53.652;8.516;2023-07-28T20:22:40;100877.54;;;21.29;100.00
37878;BME280;23715;53.652;8.516;2023-07-28T20:27:43;100866.33;;;21.41;100.00
37878;BME280;23715;53.652;8.516;2023-07-28T20:32:44;100862.23;;;21.41;100.00
37878;BME280;23715;53.652;8.516;2023-07-28T20:37:44;100855.39;;;21.41;100.00
37878;BME280;23715;53.652;8.516;2023-07-28T20:42:46;100860.33;;;21.41;100.00
37878;BME280;23715;53.652;8.516;2023-07-28T20:47:46;100861.59;;;21.39;100.00
37878;BME280;23715;53.652;8.516;2023-07-28T20:52:46;100870.34;;;21.21;100.00
37878;BME280;23715;53.652;8.516;2023-07-28T20:57:47;100866.58;;;21.11;100.00
37878;BME280;23715;53.652;8.516;2023-07-28T21:02:48;100871.57;;;21.01;100.00
37878;BME280;23715;53.652;8.516;2023-07-28T21:07:48;100879.69;;;21.22;100.00
37878;BME280;23715;53.652;8.516;2023-07-28T21:12:50;100868.67;;;21.09;100.00
37878;BME280;23715;53.652;8.516;2023-07-28T21:17:50;100882.34;;;21.26;100.00
37878;BME280;23715;53.652;8.516;2023-07-28T21:22:50;100867.45;;;21.36;100.00
37878;BME280;23715;53.652;8.516;2023-07-28T21:27:51;100868.92;;;21.49;100.00
37878;BME280;23715;53.652;8.516;2023-07-28T21:33:05;100860.70;;;21.49;100.00
37878;BME280;23715;53.652;8.516;2023-07-28T21:38:01;100848.09;;;21.31;100.00
37878;BME280;23715;53.652;8.516;2023-07-28T21:43:02;100846.94;;;21.12;100.00
37878;BME280;23715;53.652;8.516;2023-07-28T21:48:03;100854.27;;;21.11;100.00
37878;BME280;23715;53.652;8.516;2023-07-28T21:53:03;100856.97;;;21.22;100.00
37878;BME280;23715;53.652;8.516;2023-07-28T21:58:04;100846.16;;;21.07;100.00
37878;BME280;23715;53.652;8.516;2023-07-28T22:03:04;100839.10;;;21.02;100.00
37878;BME280;23715;53.652;8.516;2023-07-28T22:08:11;100835.05;;;20.98;100.00
37878;BME280;23715;53.652;8.516;2023-07-28T22:13:13;100832.27;;;21.02;100.00
37878;BME280;23715;53.652;8.516;2023-07-28T22:18:13;100830.76;;;20.99;100.00
37878;BME280;23715;53.652;8.516;2023-07-28T22:23:13;100844.89;;;20.75;100.00
37878;BME280;23715;53.652;8.516;2023-07-28T22:28:13;100831.28;;;20.81;100.00
37878;BME280;23715;53.652;8.516;2023-07-28T22:33:14;100830.47;;;20.70;100.00
37878;BME280;23715;53.652;8.516;2023-07-28T22:38:14;100829.55;;;20.74;100.00
37878;BME280;23715;53.652;8.516;2023-07-28T22:43:16;100833.33;;;20.90;100.00
37878;BME280;23715;53.652;8.516;2023-07-28T22:48:17;100820.19;;;20.72;100.00
37878;BME280;23715;53.652;8.516;2023-07-28T22:53:18;100814.35;;;20.64;100.00
37878;BME280;23715;53.652;8.516;2023-07-28T22:58:19;100822.73;;;20.63;100.00
37878;BME280;23715;53.652;8.516;2023-07-28T23:03:19;100825.72;;;20.46;100.00
37878;BME280;23715;53.652;8.516;2023-07-28T23:08:19;100819.08;;;20.45;100.00
37878;BME280;23715;53.652;8.516;2023-07-28T23:13:21;100823.78;;;20.51;100.00
37878;BME280;23715;53.652;8.516;2023-07-28T23:18:21;100825.80;;;20.42;100.00
37878;BME280;23715;53.652;8.516;2023-07-28T23:23:21;100830.16;;;20.37;100.00
37878;BME280;23715;53.652;8.516;2023-07-28T23:28:21;100829.81;;;20.57;100.00
37878;BME280;23715;53.652;8.516;2023-07-28T23:33:21;100818.43;;;20.54;100.00
37878;BME280;23715;53.652;8.516;2023-07-28T23:38:21;100807.19;;;20.63;100.00
37878;BME280;23715;53.652;8.516;2023-07-28T23:43:20;100795.03;;;20.44;100.00
37878;BME280;23715;53.652;8.516;2023-07-28T23:48:21;100798.94;;;20.46;100.00
37878;BME280;23715;53.652;8.516;2023-07-28T23:53:21;100787.18;;;20.35;100.00
37878;BME280;23715;53.652;8.516;2023-07-28T23:58:22;100787.07;;;20.32;100.00
